METAR Data
IDs: Format: Raw Decoded Include TAF

Data at: 1456 UTC 14 Apr 2021

KRHV 141447Z 00000KT 10SM FEW040 09/04 A2997